Time;durP1;ratioP1;P1;durP2;ratioP2;P2;SDS_P1;SDS_P2;PMS_P1;PMS_P2;Temp;Humidity;BMP_temperature;BMP_pressure;BME280_temperature;BME280_humidity;BME280_pressure;Samples;Min_cycle;Max_cycle;Signal;HPM_P1;HPM_P2
2023/05/20 00:00:20;;;;;;;14.10;6.50;;;11.10;83.20;;;;;;5038819;28;20416;-77
2023/05/20 00:02:46;;;;;;;14.93;6.55;;;11.10;83.20;;;;;;5055221;28;20043;-76
2023/05/20 00:05:11;;;;;;;13.52;6.18;;;11.10;83.20;;;;;;5038915;28;20047;-77
2023/05/20 00:07:37;;;;;;;14.90;7.05;;;11.10;83.20;;;;;;5055083;28;20074;-77
2023/05/20 00:10:03;;;;;;;15.40;7.03;;;11.10;83.30;;;;;;5021709;28;20040;-77
2023/05/20 00:12:28;;;;;;;14.13;7.28;;;11.00;83.50;;;;;;5038551;28;20044;-77
2023/05/20 00:14:54;;;;;;;13.02;6.05;;;11.00;83.60;;;;;;5038469;28;20047;-77
2023/05/20 00:17:20;;;;;;;16.52;6.32;;;11.00;83.40;;;;;;5055548;28;20353;-76
2023/05/20 00:19:45;;;;;;;15.38;7.47;;;11.00;83.30;;;;;;5055073;28;20492;-77
2023/05/20 00:22:11;;;;;;;11.68;6.65;;;11.00;83.60;;;;;;5038574;28;20047;-77
2023/05/20 00:24:37;;;;;;;12.90;7.15;;;11.00;83.40;;;;;;5038366;28;20127;-77
2023/05/20 00:27:03;;;;;;;13.00;7.13;;;11.00;83.50;;;;;;5054757;28;20070;-77
2023/05/20 00:29:29;;;;;;;11.20;6.53;;;11.00;83.60;;;;;;5073241;28;20032;-76
2023/05/20 00:31:55;;;;;;;12.25;6.13;;;11.00;83.80;;;;;;5074480;28;20040;-77
2023/05/20 00:34:20;;;;;;;14.15;6.68;;;11.00;83.70;;;;;;5074775;28;20128;-77
2023/05/20 00:36:46;;;;;;;12.60;5.72;;;11.00;84.00;;;;;;5075142;28;20079;-77
2023/05/20 00:39:12;;;;;;;16.95;6.68;;;10.90;84.00;;;;;;5058437;28;20036;-76
2023/05/20 00:41:37;;;;;;;16.08;6.32;;;11.00;84.00;;;;;;5041570;28;20399;-76
2023/05/20 00:44:03;;;;;;;15.15;7.53;;;11.00;84.00;;;;;;5074888;28;20044;-77
2023/05/20 00:46:29;;;;;;;10.38;6.47;;;11.00;84.20;;;;;;5036938;28;20382;-77
2023/05/20 00:48:55;;;;;;;12.23;6.50;;;10.90;84.20;;;;;;5037970;28;20041;-77
2023/05/20 00:51:20;;;;;;;17.63;6.93;;;11.00;84.20;;;;;;5038052;28;20047;-76
2023/05/20 00:53:46;;;;;;;14.85;7.70;;;10.90;84.50;;;;;;5055192;28;20124;-77
2023/05/20 00:56:13;;;;;;;14.40;6.50;;;10.90;84.60;;;;;;5054964;28;20040;-75
2023/05/20 00:58:39;;;;;;;12.30;5.95;;;10.90;84.30;;;;;;5038356;28;20041;-77
2023/05/20 01:01:05;;;;;;;12.75;6.10;;;10.90;84.40;;;;;;5058169;28;20407;-77
2023/05/20 01:03:31;;;;;;;18.05;7.47;;;10.90;84.40;;;;;;5058119;28;20126;-77
2023/05/20 01:05:57;;;;;;;17.88;6.70;;;10.90;84.40;;;;;;5074919;28;20134;-76
2023/05/20 01:08:24;;;;;;;21.63;8.52;;;10.80;84.50;;;;;;5057959;28;20528;-77
2023/05/20 01:11:23;;;;;;;14.23;7.20;;;10.90;84.70;;;;;;5074623;28;20047;-77
2023/05/20 01:13:55;;;;;;;14.80;7.00;;;10.80;84.70;;;;;;5058176;28;20036;-76
2023/05/20 01:16:23;;;;;;;15.18;7.57;;;10.80;84.60;;;;;;5074661;28;20055;-76
2023/05/20 01:18:54;;;;;;;8.80;6.10;;;10.80;84.70;;;;;;5055030;28;20442;-76
2023/05/20 01:21:20;;;;;;;16.88;7.10;;;10.70;84.70;;;;;;5054653;28;20515;-77
2023/05/20 01:23:47;;;;;;;16.08;7.38;;;10.80;84.70;;;;;;5054541;28;20123;-76
2023/05/20 01:26:13;;;;;;;15.73;7.13;;;10.70;84.90;;;;;;5054509;28;20461;-77
2023/05/20 01:28:42;;;;;;;17.02;7.30;;;10.70;85.00;;;;;;5056833;28;20032;-76
2023/05/20 01:31:22;;;;;;;14.80;7.88;;;10.60;85.00;;;;;;5064185;28;20096;-77
2023/05/20 01:33:53;;;;;;;15.77;8.32;;;10.60;85.30;;;;;;5080788;28;20024;-77
2023/05/20 01:36:21;;;;;;;16.40;7.80;;;10.60;85.50;;;;;;5080769;28;20025;-77
2023/05/20 01:38:48;;;;;;;20.70;8.13;;;10.60;85.20;;;;;;5096478;28;20043;-76
2023/05/20 01:41:14;;;;;;;16.48;6.47;;;10.60;85.30;;;;;;5047463;28;20046;-77
2023/05/20 01:43:40;;;;;;;15.45;6.95;;;10.50;85.50;;;;;;5079854;28;20100;-76
2023/05/20 01:46:06;;;;;;;15.93;7.25;;;10.60;85.70;;;;;;5047423;28;20044;-77
2023/05/20 01:48:33;;;;;;;13.40;7.22;;;10.50;85.50;;;;;;5048610;28;20048;-77
2023/05/20 01:50:59;;;;;;;14.07;6.68;;;10.50;85.50;;;;;;5059951;28;20138;-76
2023/05/20 01:53:24;;;;;;;16.17;7.53;;;10.50;85.70;;;;;;5058339;28;20102;-75
2023/05/20 01:55:50;;;;;;;13.15;8.20;;;10.50;85.70;;;;;;5058577;28;20048;-77
2023/05/20 01:58:16;;;;;;;15.77;8.07;;;10.50;86.30;;;;;;5042000;28;20047;-76
2023/05/20 02:00:41;;;;;;;11.30;6.60;;;10.50;85.90;;;;;;5041825;28;20109;-77
2023/05/20 02:03:07;;;;;;;16.17;7.47;;;10.50;86.00;;;;;;5058918;28;20044;-77
2023/05/20 02:05:33;;;;;;;17.17;8.25;;;10.50;85.80;;;;;;5058236;28;20471;-77
2023/05/20 02:07:58;;;;;;;17.17;8.00;;;10.50;85.90;;;;;;5027999;28;20040;-77
2023/05/20 02:10:24;;;;;;;17.77;7.90;;;10.50;86.30;;;;;;5058065;28;20040;-77
2023/05/20 02:12:50;;;;;;;17.77;7.95;;;10.50;86.10;;;;;;5058545;28;20044;-77
2023/05/20 02:15:15;;;;;;;13.10;7.57;;;10.50;86.00;;;;;;5041409;28;20050;-76
2023/05/20 02:17:42;;;;;;;14.48;7.35;;;10.50;86.30;;;;;;5057997;28;20047;-77
2023/05/20 02:20:09;;;;;;;15.95;6.95;;;10.50;86.10;;;;;;5025200;28;20051;-77
2023/05/20 02:22:35;;;;;;;11.80;7.35;;;10.50;86.10;;;;;;5041489;28;20400;-77
2023/05/20 02:25:01;;;;;;;12.27;7.30;;;10.50;86.30;;;;;;5057673;28;20048;-77
2023/05/20 02:27:27;;;;;;;15.25;7.70;;;10.50;86.30;;;;;;5057829;28;20074;-77
2023/05/20 02:29:52;;;;;;;16.65;8.70;;;10.50;86.30;;;;;;5041380;28;20161;-77
2023/05/20 02:32:19;;;;;;;15.32;7.85;;;10.50;86.20;;;;;;5057539;28;20115;-77
2023/05/20 02:34:45;;;;;;;14.63;7.13;;;10.50;86.30;;;;;;5041107;28;20040;-77
2023/05/20 02:37:10;;;;;;;15.32;8.40;;;10.50;86.30;;;;;;5057652;28;20055;-77
2023/05/20 02:39:36;;;;;;;14.77;7.97;;;10.50;86.40;;;;;;5044981;28;20093;-76
2023/05/20 02:42:03;;;;;;;15.27;8.25;;;10.50;86.30;;;;;;5077705;28;20043;-77
2023/05/20 02:44:29;;;;;;;16.30;8.27;;;10.50;86.40;;;;;;5077651;28;20044;-77
2023/05/20 02:46:55;;;;;;;12.32;7.22;;;10.40;86.30;;;;;;5077198;28;20504;-77
2023/05/20 02:49:20;;;;;;;14.65;7.70;;;10.40;86.40;;;;;;5077670;28;20055;-77
2023/05/20 02:51:46;;;;;;;13.98;8.52;;;10.40;86.40;;;;;;5044274;28;20032;-77
2023/05/20 02:54:12;;;;;;;14.23;8.20;;;10.50;86.50;;;;;;5077322;28;20054;-76
2023/05/20 02:56:38;;;;;;;13.25;8.18;;;10.50;86.60;;;;;;5058693;28;20051;-77
2023/05/20 02:59:05;;;;;;;14.27;7.72;;;10.40;86.70;;;;;;5040586;28;20127;-76
2023/05/20 03:01:32;;;;;;;15.30;8.45;;;10.40;86.60;;;;;;5040911;28;20131;-76
2023/05/20 03:03:58;;;;;;;17.90;7.70;;;10.40;86.60;;;;;;5040891;28;20127;-77
2023/05/20 03:06:23;;;;;;;13.65;8.00;;;10.40;86.60;;;;;;5040436;28;20127;-77
2023/05/20 03:08:49;;;;;;;18.95;8.60;;;10.30;86.60;;;;;;5057397;28;20048;-77
2023/05/20 03:11:15;;;;;;;11.35;6.40;;;10.30;86.70;;;;;;5040419;28;20488;-77
2023/05/20 03:13:41;;;;;;;11.52;6.70;;;10.30;86.90;;;;;;5040171;28;20047;-77
2023/05/20 03:16:06;;;;;;;13.73;7.88;;;10.30;86.70;;;;;;5056950;28;20040;-76
2023/05/20 03:18:32;;;;;;;13.45;6.88;;;10.30;86.90;;;;;;5057109;28;20138;-77
2023/05/20 03:20:58;;;;;;;11.50;7.53;;;10.30;86.70;;;;;;5023640;28;20045;-77
2023/05/20 03:23:23;;;;;;;9.80;6.38;;;10.30;86.80;;;;;;5040137;28;20040;-77
2023/05/20 03:25:49;;;;;;;9.52;6.75;;;10.30;86.70;;;;;;5056213;28;20036;-77
2023/05/20 03:28:15;;;;;;;13.18;7.57;;;10.30;86.60;;;;;;5022922;28;20045;-77
2023/05/20 03:30:40;;;;;;;14.10;7.90;;;10.30;86.70;;;;;;5057945;28;20048;-77
2023/05/20 03:33:06;;;;;;;16.77;8.52;;;10.20;86.80;;;;;;5039357;28;20036;-77
2023/05/20 03:35:32;;;;;;;13.77;6.53;;;10.20;86.70;;;;;;5038932;28;20036;-77
2023/05/20 03:38:00;;;;;;;9.65;6.55;;;10.20;86.80;;;;;;5056342;28;20040;-77
2023/05/20 03:40:26;;;;;;;11.65;6.90;;;10.20;86.90;;;;;;5039802;28;20037;-77
2023/05/20 03:42:52;;;;;;;15.30;8.13;;;10.10;86.90;;;;;;5072961;28;20046;-77
2023/05/20 03:45:17;;;;;;;12.25;6.68;;;10.10;86.90;;;;;;5039653;28;20040;-77
2023/05/20 03:47:43;;;;;;;15.15;7.38;;;10.10;86.90;;;;;;5055875;28;20055;-76
2023/05/20 03:50:09;;;;;;;10.80;5.80;;;10.10;87.00;;;;;;5056095;28;20400;-77
2023/05/20 03:52:35;;;;;;;13.55;6.43;;;10.10;86.90;;;;;;5072731;28;20079;-76
2023/05/20 03:55:01;;;;;;;9.00;5.95;;;10.10;87.00;;;;;;5055920;28;20041;-77
2023/05/20 03:57:28;;;;;;;11.48;6.53;;;10.10;87.00;;;;;;5039554;28;20105;-76
2023/05/20 03:59:54;;;;;;;9.00;6.35;;;10.10;86.90;;;;;;5072453;28;20048;-77
2023/05/20 04:02:20;;;;;;;11.00;6.57;;;10.10;86.90;;;;;;5022881;28;20127;-77
2023/05/20 04:04:46;;;;;;;10.38;6.18;;;10.10;86.90;;;;;;5041405;28;20040;-75
2023/05/20 04:07:11;;;;;;;10.13;4.95;;;10.10;87.00;;;;;;5054946;28;20400;-75
2023/05/20 04:09:38;;;;;;;13.00;6.90;;;10.10;86.90;;;;;;5039213;28;20047;-76
2023/05/20 04:12:06;;;;;;;10.20;5.68;;;10.10;87.00;;;;;;5039255;28;20044;-76
2023/05/20 04:14:33;;;;;;;10.95;6.18;;;10.10;86.90;;;;;;5055470;28;20040;-75
2023/05/20 04:17:03;;;;;;;8.20;5.90;;;10.10;86.90;;;;;;5039276;28;20052;-76
2023/05/20 04:19:29;;;;;;;9.75;5.20;;;10.20;86.80;;;;;;5039336;28;20044;-76
2023/05/20 04:21:55;;;;;;;8.30;5.35;;;10.20;86.80;;;;;;5055048;28;20420;-76
2023/05/20 04:24:24;;;;;;;9.05;5.15;;;10.20;86.70;;;;;;5072199;28;20154;-76
2023/05/20 04:26:51;;;;;;;11.05;4.97;;;10.20;86.70;;;;;;5039153;28;20047;-76
2023/05/20 04:29:17;;;;;;;7.80;4.70;;;10.20;86.70;;;;;;5055347;28;20051;-76
2023/05/20 04:31:45;;;;;;;7.00;4.68;;;10.20;86.60;;;;;;5055798;28;20437;-76
2023/05/20 04:34:11;;;;;;;6.28;4.22;;;10.20;86.50;;;;;;5038962;28;20416;-76
2023/05/20 04:36:37;;;;;;;7.22;4.00;;;10.30;86.50;;;;;;5055213;28;20041;-76
2023/05/20 04:39:03;;;;;;;7.97;5.13;;;10.30;86.50;;;;;;5057015;28;20082;-76
2023/05/20 04:41:30;;;;;;;7.47;3.75;;;10.30;86.40;;;;;;5041995;28;20154;-75
2023/05/20 04:44:00;;;;;;;8.50;4.60;;;10.40;86.30;;;;;;5042214;28;20036;-75
2023/05/20 04:46:26;;;;;;;7.90;3.75;;;10.40;86.20;;;;;;5075438;28;20048;-75
2023/05/20 04:48:52;;;;;;;6.10;3.88;;;10.40;86.10;;;;;;5075409;28;20079;-76
2023/05/20 04:51:18;;;;;;;5.45;3.72;;;10.40;86.10;;;;;;5058499;28;20097;-75
2023/05/20 04:53:44;;;;;;;5.07;3.33;;;10.50;86.00;;;;;;5054221;28;20028;-75
2023/05/20 04:56:10;;;;;;;7.35;3.65;;;10.50;85.90;;;;;;5055262;28;20050;-76
2023/05/20 04:58:36;;;;;;;7.53;3.22;;;10.50;85.80;;;;;;5021911;28;20049;-76
2023/05/20 05:01:02;;;;;;;7.85;3.28;;;10.50;85.70;;;;;;5055439;28;20040;-76
2023/05/20 05:03:28;;;;;;;7.43;3.22;;;10.50;85.50;;;;;;5054687;28;20036;-76
2023/05/20 05:05:58;;;;;;;8.60;2.97;;;10.60;85.40;;;;;;5054973;28;20041;-76
2023/05/20 05:08:25;;;;;;;6.18;3.25;;;10.60;85.30;;;;;;5071702;28;20036;-76
2023/05/20 05:10:51;;;;;;;6.50;3.50;;;10.60;85.20;;;;;;5071709;28;20041;-76
2023/05/20 05:13:17;;;;;;;7.65;3.05;;;10.50;85.10;;;;;;5071975;28;20044;-76
2023/05/20 05:15:42;;;;;;;7.30;3.40;;;10.60;85.00;;;;;;5022003;28;20396;-76
2023/05/20 05:18:08;;;;;;;10.20;4.43;;;10.60;85.00;;;;;;5022378;28;20033;-76
2023/05/20 05:20:34;;;;;;;4.43;3.08;;;10.60;84.90;;;;;;5052791;28;20044;-75
2023/05/20 05:23:00;;;;;;;7.07;3.60;;;10.60;84.90;;;;;;5042246;28;20036;-76
2023/05/20 05:25:26;;;;;;;5.38;2.78;;;10.50;84.80;;;;;;5058508;28;20161;-76
2023/05/20 05:27:54;;;;;;;3.15;2.10;;;10.60;84.80;;;;;;5041877;28;20044;-77
2023/05/20 05:30:20;;;;;;;6.22;3.13;;;10.60;84.80;;;;;;5058590;28;20119;-77
2023/05/20 05:32:46;;;;;;;6.70;2.60;;;10.70;84.70;;;;;;5058794;28;20048;-76
2023/05/20 05:35:12;;;;;;;3.83;2.75;;;10.70;84.70;;;;;;5041706;28;20466;-76
2023/05/20 05:37:38;;;;;;;5.05;2.60;;;10.80;84.70;;;;;;5041884;28;20389;-76
2023/05/20 05:40:04;;;;;;;6.05;2.47;;;10.90;84.70;;;;;;5041834;28;20403;-75
2023/05/20 05:42:29;;;;;;;5.85;2.85;;;11.00;84.60;;;;;;5041967;28;20043;-77
2023/05/20 05:44:55;;;;;;;10.65;2.97;;;11.00;84.50;;;;;;5025214;28;20127;-76
2023/05/20 05:47:21;;;;;;;4.22;2.50;;;11.10;84.30;;;;;;5057809;28;20057;-76
2023/05/20 05:49:47;;;;;;;4.10;2.63;;;11.20;84.10;;;;;;5058157;28;20051;-76
2023/05/20 05:52:13;;;;;;;8.57;3.00;;;11.30;83.70;;;;;;5058079;28;20086;-76
2023/05/20 05:54:38;;;;;;;4.85;2.58;;;11.40;83.60;;;;;;5036077;28;20098;-77
2023/05/20 05:57:04;;;;;;;4.03;2.97;;;11.50;83.30;;;;;;5041829;28;20396;-76
2023/05/20 05:59:30;;;;;;;7.32;2.90;;;11.60;82.80;;;;;;5058382;28;20051;-76
2023/05/20 06:01:55;;;;;;;3.95;2.28;;;11.70;82.90;;;;;;5058269;28;20044;-76
2023/05/20 06:04:21;;;;;;;3.63;1.88;;;11.80;82.80;;;;;;5057670;28;20043;-76
2023/05/20 06:06:48;;;;;;;6.35;2.33;;;11.80;82.60;;;;;;5057909;28;20166;-77
2023/05/20 06:09:16;;;;;;;4.60;2.20;;;11.80;82.30;;;;;;5057620;28;20048;-76
2023/05/20 06:11:43;;;;;;;3.53;2.20;;;11.80;82.10;;;;;;5074481;28;20040;-76
2023/05/20 06:14:08;;;;;;;3.35;2.22;;;11.90;81.90;;;;;;5041165;28;20044;-76
2023/05/20 06:16:35;;;;;;;4.80;2.20;;;12.00;81.90;;;;;;5057771;28;20036;-76
2023/05/20 06:19:01;;;;;;;6.63;2.30;;;12.00;81.70;;;;;;5041627;28;20066;-76
2023/05/20 06:21:26;;;;;;;4.60;1.80;;;12.20;81.30;;;;;;5074433;28;20545;-76
2023/05/20 06:23:52;;;;;;;3.13;2.40;;;12.30;81.20;;;;;;5040705;28;20047;-76
2023/05/20 06:26:17;;;;;;;5.07;2.20;;;12.40;81.00;;;;;;5040809;28;20051;-76
2023/05/20 06:28:43;;;;;;;4.65;1.98;;;12.50;80.80;;;;;;5041162;28;20106;-76
2023/05/20 06:31:09;;;;;;;2.72;2.00;;;12.50;80.40;;;;;;5040035;28;20036;-76
2023/05/20 06:33:35;;;;;;;3.75;1.80;;;12.50;79.90;;;;;;5041067;28;20036;-76
2023/05/20 06:36:01;;;;;;;3.63;1.63;;;12.50;79.40;;;;;;5041015;28;20044;-76
2023/05/20 06:38:27;;;;;;;3.47;2.10;;;12.50;79.50;;;;;;5024616;28;20392;-76
2023/05/20 06:40:52;;;;;;;3.05;1.60;;;12.60;79.20;;;;;;5057068;28;20172;-76
2023/05/20 06:43:18;;;;;;;3.92;1.65;;;12.70;78.60;;;;;;5073895;28;20128;-76
2023/05/20 06:45:44;;;;;;;4.88;2.83;;;12.80;78.70;;;;;;5040726;28;20085;-76
2023/05/20 06:48:10;;;;;;;2.92;2.03;;;12.90;78.60;;;;;;5040755;28;20099;-76
2023/05/20 06:50:35;;;;;;;6.20;1.85;;;13.00;78.50;;;;;;5040803;28;20040;-76
2023/05/20 06:53:01;;;;;;;3.25;1.85;;;13.10;78.10;;;;;;5024274;28;20036;-76
2023/05/20 06:55:27;;;;;;;4.60;1.80;;;13.30;77.60;;;;;;5040442;28;20040;-77
2023/05/20 06:57:53;;;;;;;4.45;1.50;;;13.40;77.50;;;;;;5057002;28;20123;-76
2023/05/20 07:00:19;;;;;;;3.05;2.47;;;13.50;77.10;;;;;;5023844;28;20076;-76
2023/05/20 07:02:45;;;;;;;4.32;2.50;;;13.60;76.90;;;;;;5040517;28;20052;-76
2023/05/20 07:05:11;;;;;;;3.33;2.03;;;13.80;76.50;;;;;;5039818;28;20044;-76
2023/05/20 07:07:37;;;;;;;5.93;2.33;;;13.80;75.70;;;;;;5056456;28;20141;-77
2023/05/20 07:10:04;;;;;;;4.82;1.52;;;14.00;75.50;;;;;;5040220;28;20076;-76
2023/05/20 07:12:31;;;;;;;9.02;1.80;;;14.10;74.80;;;;;;5056509;28;20499;-76
2023/05/20 07:14:57;;;;;;;4.22;2.20;;;14.20;74.60;;;;;;5056569;28;20096;-75
2023/05/20 07:17:23;;;;;;;2.28;1.35;;;14.20;73.90;;;;;;5065464;28;20443;-76
2023/05/20 07:19:49;;;;;;;4.45;1.50;;;14.40;73.10;;;;;;5056302;28;20131;-76
2023/05/20 07:22:15;;;;;;;5.03;1.60;;;14.50;72.80;;;;;;5056688;28;20144;-76
2023/05/20 07:24:41;;;;;;;2.60;1.30;;;14.50;72.00;;;;;;5039501;28;20083;-77
2023/05/20 07:27:07;;;;;;;4.53;1.40;;;14.60;71.20;;;;;;5056077;28;20040;-77
2023/05/20 07:29:37;;;;;;;2.45;1.23;;;14.70;70.90;;;;;;5039587;28;20044;-76
2023/05/20 07:32:04;;;;;;;4.57;1.73;;;14.80;70.60;;;;;;5056248;28;20059;-76
2023/05/20 07:34:30;;;;;;;4.65;1.50;;;14.90;70.90;;;;;;5056018;28;20051;-76
2023/05/20 07:36:56;;;;;;;4.30;1.40;;;14.90;70.50;;;;;;5055837;28;20044;-77
2023/05/20 07:39:23;;;;;;;5.20;1.65;;;15.00;70.10;;;;;;5039364;28;20097;-76
2023/05/20 07:41:48;;;;;;;3.08;1.70;;;15.00;69.80;;;;;;5056212;28;20389;-75
2023/05/20 07:44:14;;;;;;;3.40;1.35;;;15.20;69.90;;;;;;5039181;28;20044;-77
2023/05/20 07:46:40;;;;;;;3.95;1.38;;;15.30;69.70;;;;;;5055511;28;20060;-76
2023/05/20 07:49:06;;;;;;;4.55;1.63;;;15.30;69.30;;;;;;5055640;28;20040;-77
2023/05/20 07:51:32;;;;;;;2.30;1.30;;;15.50;69.20;;;;;;5054842;28;20043;-77
2023/05/20 07:53:58;;;;;;;2.67;1.30;;;15.50;68.80;;;;;;5075735;28;20032;-76
2023/05/20 07:56:24;;;;;;;2.88;1.73;;;15.60;69.00;;;;;;5059009;28;20048;-76
2023/05/20 07:58:58;;;;;;;4.45;1.73;;;15.70;68.70;;;;;;5059052;28;20052;-76
2023/05/20 08:01:25;;;;;;;3.15;1.60;;;15.70;68.70;;;;;;5059314;28;20456;-76
2023/05/20 08:03:51;;;;;;;2.47;1.23;;;15.80;68.30;;;;;;5058930;28;20048;-77
2023/05/20 08:06:19;;;;;;;2.20;1.40;;;16.00;67.70;;;;;;5059452;28;20043;-76
2023/05/20 08:08:45;;;;;;;2.45;1.30;;;16.00;67.30;;;;;;5071830;28;20458;-76
2023/05/20 08:11:11;;;;;;;4.22;1.35;;;16.10;66.90;;;;;;5055423;28;20049;-76
2023/05/20 08:13:37;;;;;;;2.42;1.40;;;16.20;66.90;;;;;;5055671;28;20404;-76
2023/05/20 08:16:04;;;;;;;4.75;1.52;;;16.40;66.50;;;;;;5055871;28;20055;-76
2023/05/20 08:18:31;;;;;;;2.95;1.63;;;16.40;66.90;;;;;;5038990;28;20078;-77
2023/05/20 08:20:58;;;;;;;4.30;1.58;;;16.50;66.10;;;;;;5055866;28;20457;-76
2023/05/20 08:23:24;;;;;;;3.88;1.55;;;16.60;66.10;;;;;;5039198;28;20048;-76
2023/05/20 08:25:50;;;;;;;2.97;1.70;;;16.70;66.20;;;;;;5050221;28;20523;-76
2023/05/20 08:28:16;;;;;;;2.30;1.58;;;16.70;65.90;;;;;;5055519;28;20040;-76
2023/05/20 08:30:42;;;;;;;3.72;1.73;;;16.80;65.80;;;;;;5055255;28;20044;-77
2023/05/20 08:33:08;;;;;;;4.60;1.77;;;16.90;66.30;;;;;;5055409;28;20123;-76
2023/05/20 08:35:34;;;;;;;2.22;1.48;;;17.00;66.50;;;;;;5072104;28;20078;-77
2023/05/20 08:38:00;;;;;;;3.00;1.70;;;17.10;66.20;;;;;;5022028;28;20065;-76
2023/05/20 08:40:26;;;;;;;5.05;1.98;;;17.10;66.40;;;;;;5054792;28;20101;-77
2023/05/20 08:42:56;;;;;;;3.90;1.63;;;17.20;66.30;;;;;;5058649;28;20044;-77
2023/05/20 08:45:29;;;;;;;4.10;1.83;;;17.20;64.90;;;;;;5058713;28;20063;-77
2023/05/20 08:47:54;;;;;;;4.55;1.70;;;17.30;64.80;;;;;;5074800;28;20094;-77
2023/05/20 08:50:21;;;;;;;4.03;1.52;;;17.40;64.70;;;;;;5041760;28;20079;-76
2023/05/20 08:52:48;;;;;;;3.00;1.85;;;17.50;64.60;;;;;;5057878;28;20044;-76
2023/05/20 08:55:40;;;;;;;3.80;1.60;;;17.50;63.70;;;;;;5057949;28;20491;-77
2023/05/20 08:58:06;;;;;;;4.43;1.40;;;17.60;64.80;;;;;;5053333;28;20408;-76
2023/05/20 09:00:32;;;;;;;4.95;1.35;;;17.60;64.60;;;;;;5054874;28;20045;-77
2023/05/20 09:02:59;;;;;;;2.35;1.63;;;17.70;64.80;;;;;;5054813;28;20397;-77
2023/05/20 09:05:26;;;;;;;2.42;1.52;;;17.70;65.00;;;;;;5038277;28;20036;-77
2023/05/20 09:07:51;;;;;;;3.67;1.50;;;17.80;65.20;;;;;;5055075;28;20066;-76
2023/05/20 09:10:18;;;;;;;3.22;1.60;;;17.80;63.80;;;;;;5038220;28;20036;-77
2023/05/20 09:12:44;;;;;;;4.88;2.10;;;17.90;64.40;;;;;;5054395;28;20040;-77
2023/05/20 09:15:10;;;;;;;5.35;2.30;;;17.80;64.10;;;;;;5005674;28;20068;-77
2023/05/20 09:17:37;;;;;;;4.68;1.67;;;17.90;64.30;;;;;;5055392;28;20036;-77
2023/05/20 09:20:10;;;;;;;3.13;1.70;;;17.90;64.00;;;;;;5054859;28;20048;-76
2023/05/20 09:22:37;;;;;;;4.50;1.38;;;18.00;64.20;;;;;;5054987;28;20078;-77
2023/05/20 09:25:04;;;;;;;4.15;2.20;;;18.10;64.30;;;;;;5054696;28;20049;-78
2023/05/20 09:27:30;;;;;;;3.13;1.30;;;18.20;64.50;;;;;;5021002;28;20048;-77
2023/05/20 09:29:55;;;;;;;5.00;1.88;;;18.30;64.20;;;;;;5054554;28;20040;-77
2023/05/20 09:32:27;;;;;;;3.40;1.40;;;18.40;64.30;;;;;;5054970;28;20032;-76
2023/05/20 09:34:52;;;;;;;4.22;1.65;;;18.50;63.40;;;;;;5054535;28;20046;-77
2023/05/20 09:37:20;;;;;;;14.00;2.65;;;18.50;62.70;;;;;;5021748;28;20135;-77
2023/05/20 09:40:00;;;;;;;4.85;1.58;;;18.60;62.40;;;;;;5054865;28;20363;-77
2023/05/20 09:42:34;;;;;;;2.63;1.33;;;18.70;62.40;;;;;;5054971;28;20427;-77
2023/05/20 09:45:00;;;;;;;;;;;18.80;62.80;;;;;;5054816;28;20048;-77
2023/05/20 09:47:27;;;;;;;3.95;1.50;;;18.90;63.30;;;;;;5070582;28;20007;-77
2023/05/20 09:49:53;;;;;;;3.35;1.20;;;18.90;62.30;;;;;;5036260;28;20632;-76
2023/05/20 09:52:20;;;;;;;4.07;1.60;;;19.00;62.30;;;;;;5054961;28;20041;-77
2023/05/20 09:54:47;;;;;;;5.65;1.92;;;19.10;61.90;;;;;;5037942;28;20044;-77
2023/05/20 09:57:15;;;;;;;6.72;1.85;;;19.10;60.90;;;;;;5054633;28;20040;-77
2023/05/20 09:59:45;;;;;;;3.63;1.35;;;19.20;61.40;;;;;;5054451;28;20093;-77
2023/05/20 10:02:11;;;;;;;6.57;1.67;;;19.30;61.40;;;;;;5054176;28;20080;-78
2023/05/20 10:04:42;;;;;;;4.22;1.85;;;19.30;60.80;;;;;;5037360;28;20087;-77
2023/05/20 10:07:42;;;;;;;4.28;1.98;;;19.40;61.00;;;;;;5074243;28;20454;-77
2023/05/20 10:10:43;;;;;;;5.40;1.70;;;19.50;61.70;;;;;;5057695;28;20032;-77
2023/05/20 10:13:28;;;;;;;5.85;2.08;;;19.60;60.00;;;;;;5057691;28;20178;-77
2023/05/20 10:16:12;;;;;;;;;;;19.70;61.10;;;;;;5058165;28;20487;-77
2023/05/20 10:18:52;;;;;;;8.20;2.30;;;19.80;61.20;;;;;;5057485;28;20007;-77
2023/05/20 10:21:21;;;;;;;5.68;1.98;;;19.80;60.90;;;;;;5072461;28;20076;-77
2023/05/20 10:23:46;;;;;;;3.95;1.75;;;19.80;61.00;;;;;;5074462;28;20036;-77
2023/05/20 10:26:12;;;;;;;3.67;1.75;;;19.80;60.70;;;;;;5040821;28;20423;-77
2023/05/20 10:28:39;;;;;;;3.60;1.70;;;19.90;61.10;;;;;;5074257;28;20373;-76
2023/05/20 10:31:20;;;;;;;3.55;2.00;;;19.90;59.90;;;;;;5074163;28;20036;-76
2023/05/20 10:33:46;;;;;;;3.65;2.03;;;19.90;60.80;;;;;;5041035;28;20388;-77
2023/05/20 10:36:25;;;;;;;4.22;1.70;;;20.00;60.80;;;;;;5073667;28;20041;-77
2023/05/20 10:38:52;;;;;;;5.40;2.22;;;20.00;61.00;;;;;;5041095;28;20381;-77
2023/05/20 10:41:26;;;;;;;4.35;2.13;;;20.00;58.50;;;;;;5074231;28;20048;-77
2023/05/20 10:44:02;;;;;;;6.35;2.28;;;20.10;58.70;;;;;;5040795;28;20097;-77
2023/05/20 10:46:29;;;;;;;4.93;2.50;;;20.20;60.50;;;;;;5070811;28;20067;-77
2023/05/20 10:48:55;;;;;;;7.07;1.98;;;20.40;61.00;;;;;;5037619;28;20087;-76
2023/05/20 10:51:21;;;;;;;8.18;2.08;;;20.50;60.80;;;;;;5020915;28;20072;-76
2023/05/20 10:53:52;;;;;;;4.32;2.25;;;20.70;61.10;;;;;;5053457;28;20503;-77
2023/05/20 10:56:25;;;;;;;8.05;2.42;;;20.80;60.80;;;;;;5037285;28;20087;-77
2023/05/20 10:58:52;;;;;;;7.63;2.55;;;20.80;60.40;;;;;;5037141;28;20394;-77
2023/05/20 11:01:23;;;;;;;7.13;2.67;;;20.90;60.20;;;;;;5037026;28;20051;-77
2023/05/20 11:03:49;;;;;;;4.40;2.20;;;20.90;59.80;;;;;;5037463;28;20049;-77
2023/05/20 11:06:17;;;;;;;4.80;2.20;;;20.90;58.00;;;;;;5036561;28;20131;-76
2023/05/20 11:08:46;;;;;;;5.55;1.92;;;20.70;57.50;;;;;;5037112;28;20500;-77
2023/05/20 11:11:13;;;;;;;5.80;2.10;;;20.60;59.00;;;;;;5036803;28;20048;-77
2023/05/20 11:13:39;;;;;;;6.88;2.75;;;20.70;59.30;;;;;;5035768;28;20067;-77
2023/05/20 11:16:05;;;;;;;3.83;2.28;;;20.80;58.80;;;;;;5019842;28;20485;-77
2023/05/20 11:18:31;;;;;;;7.30;2.33;;;20.70;59.50;;;;;;5019847;28;20077;-77
2023/05/20 11:20:58;;;;;;;5.57;2.40;;;20.80;59.90;;;;;;5036192;28;20132;-76
2023/05/20 11:23:26;;;;;;;4.03;2.17;;;20.90;58.90;;;;;;5043760;28;20044;-77
2023/05/20 11:25:53;;;;;;;6.25;2.50;;;20.90;60.00;;;;;;5056036;28;20048;-77
2023/05/20 11:28:22;;;;;;;5.82;2.28;;;20.90;59.10;;;;;;5040081;28;20447;-78
2023/05/20 11:30:52;;;;;;;7.05;2.78;;;20.90;58.30;;;;;;5056281;28;20036;-77
2023/05/20 11:33:18;;;;;;;6.10;2.35;;;20.90;58.50;;;;;;5056341;28;20037;-77
2023/05/20 11:35:46;;;;;;;5.38;2.40;;;20.90;59.10;;;;;;5056223;28;20040;-77
2023/05/20 11:38:12;;;;;;;6.75;2.80;;;21.00;59.00;;;;;;5039399;28;20067;-77
2023/05/20 11:40:52;;;;;;;6.43;3.03;;;21.20;58.70;;;;;;5037573;28;20484;-78
2023/05/20 11:43:18;;;;;;;3.50;2.35;;;21.30;57.50;;;;;;5032211;28;20043;-78
2023/05/20 11:45:46;;;;;;;4.32;2.25;;;21.40;58.20;;;;;;5056068;28;20072;-78
2023/05/20 11:48:14;;;;;;;6.25;2.33;;;21.50;58.20;;;;;;5055873;28;20053;-77
2023/05/20 11:50:45;;;;;;;10.63;2.55;;;21.50;58.20;;;;;;5039630;28;20090;-78
2023/05/20 11:53:15;;;;;;;3.53;2.10;;;21.70;58.40;;;;;;5055550;28;20040;-78
2023/05/20 11:55:48;;;;;;;8.05;2.85;;;21.90;58.60;;;;;;5039818;28;20036;-78
2023/05/20 11:58:21;;;;;;;4.60;2.67;;;22.00;57.60;;;;;;5036722;28;20077;-77
2023/05/20 12:00:47;;;;;;;;;;;22.10;57.20;;;;;;5036509;28;20044;-78
2023/05/20 12:03:13;;;;;;;7.70;2.72;;;22.10;56.60;;;;;;5036008;28;19916;-77
2023/05/20 12:05:39;;;;;;;5.60;3.35;;;22.10;56.90;;;;;;5035873;28;20094;-77
2023/05/20 12:08:05;;;;;;;4.43;2.53;;;22.10;56.80;;;;;;5019660;28;20041;-78
2023/05/20 12:10:31;;;;;;;11.85;3.25;;;22.20;56.50;;;;;;5035988;28;20037;-78
2023/05/20 12:12:58;;;;;;;3.55;2.30;;;22.30;56.60;;;;;;5035936;28;20033;-77
2023/05/20 12:15:24;;;;;;;6.55;2.58;;;22.30;57.20;;;;;;5051956;28;20040;-78
2023/05/20 12:17:51;;;;;;;5.13;2.17;;;22.40;55.20;;;;;;5032467;28;20187;-78
2023/05/20 12:20:21;;;;;;;4.90;2.90;;;22.40;54.30;;;;;;5038941;28;20054;-78
2023/05/20 12:22:47;;;;;;;5.03;3.00;;;22.40;55.90;;;;;;5043832;28;20123;-78
2023/05/20 12:25:15;;;;;;;7.35;2.88;;;22.40;55.30;;;;;;5035114;28;20045;-78
2023/05/20 12:27:42;;;;;;;9.65;2.85;;;22.40;55.30;;;;;;5034553;28;20064;-77
2023/05/20 12:30:10;;;;;;;6.05;2.47;;;22.20;55.80;;;;;;5003114;28;20033;-78
2023/05/20 12:32:37;;;;;;;10.73;2.90;;;22.20;55.70;;;;;;5034704;28;20045;-78
2023/05/20 12:35:03;;;;;;;8.55;3.17;;;22.20;55.80;;;;;;5034839;28;20032;-78
2023/05/20 12:37:29;;;;;;;6.15;2.50;;;22.20;55.90;;;;;;5034933;28;20072;-78
2023/05/20 12:39:55;;;;;;;5.07;2.70;;;22.20;57.00;;;;;;5034948;28;20036;-77
2023/05/20 12:42:21;;;;;;;4.50;3.40;;;22.20;54.50;;;;;;5018675;28;20041;-78